Аэропорт: Витязево. Анапа

ICAO: URKA

METAR:
2023-09-29 22:30:00
URKA 292230Z 10005MPS CAVOK 20/07 Q1015 R04/010070 NOSIG RMK QFE757/1010
METAR:
2023-09-29 19:51:00
TAF URKA 291951Z 2921/3021 07003G09MPS 9999 SCT030 TEMPO 2921/3012 09007G14MPS